Golconda, Illinois
Current Conditions -  °F | °C
As of 12:35 AM on Monday 26 Jan 2015 (Local Time) from KM30 Reporting Station
Overcast Overcast  
Wind Chill: 26°   Ceiling: 1100
Heat Index: 35°   Visibility: 10mi
Dew Point: 35°   Wind: 14mph
Humidity: 99%   Direction: 330°NNW
Pressure: 29.91"   Gusts: 21mph
Location:  37.37°N, 88.49°W
Report Text: KM30 260635Z AUTO 33012G18KT 10SM OVC011 02/02 A2991 RMK AO2 T00170015
Loading
Personal Weather Stations






























Interactive Weather Map New forecast layout! Learn more

10-Day Weather Forecast

Advertisements
Track Severe Weather on mobile